METAR Data
IDs: Format: Raw Decoded Include TAF

Data at: 1446 UTC 25 Jan 2020

KCWF 251346Z 00000KT 10SM SKC 06/03 A3022
KCWF 251245Z 07004KT 10SM SKC 04/02 A3020
KCWF 251200Z 08004KT 10SM SKC 03/02 A3018
KCWF 251135Z AUTO 08004KT 10SM CLR 04/02 A3018 RMK AO2 T00380019
KCWF 251115Z AUTO 07003KT 10SM CLR 04/02 A3018 RMK AO2 T00380021
KCWF 251055Z AUTO 05003KT 10SM CLR 05/02 A3018 RMK AO2 T00470021
KCWF 251030Z AUTO 00000KT 10SM CLR 05/02 A3018 RMK AO2 T00540020
KCWF 251015Z AUTO 00000KT 10SM CLR 04/02 A3017 RMK AO2 T00440021
KCWF 250955Z AUTO 00000KT 10SM CLR 04/02 A3018 RMK AO2
KCWF 250935Z AUTO 00000KT 10SM CLR 04/02 A3017 RMK AO2 T00410021
KCWF 250915Z AUTO 00000KT 10SM CLR 06/02 A3017 RMK AO2 T00580020
KCWF 250855Z AUTO 01003KT 10SM CLR 06/02 A3016 RMK AO2 T00650021
KCWF 250835Z AUTO 36003KT 10SM CLR 07/02 A3017 RMK AO2 T00650020
KCWF 250815Z AUTO 00000KT 10SM CLR 07/02 A3017 RMK AO2 T00670025
KCWF 250755Z AUTO 00000KT 10SM CLR 06/03 A3017 RMK AO2 T00590033
KCWF 250735Z AUTO 00000KT 10SM CLR 06/04 A3017 RMK AO2 T00560037
KCWF 250715Z AUTO 00000KT 10SM CLR 06/04 A3017 RMK AO2 T00610037
KCWF 250655Z AUTO 00000KT 10SM CLR 06/04 A3017 RMK AO2 T00580037
KCWF 250635Z AUTO 00000KT 10SM CLR 06/04 A3016 RMK AO2 T00650037
KCWF 250615Z AUTO 33003KT 10SM CLR 06/04 A3017 RMK AO2 T00610039
KCWF 250555Z AUTO 33003KT 10SM CLR 06/04 A3017 RMK AO2 T00640044 10148 20061
KCWF 250535Z AUTO 00000KT 10SM CLR 06/04 A3017 RMK AO2 T00640041
KCWF 250515Z AUTO 00000KT 10SM CLR 06/04 A3017 RMK AO2 T00650044
KCWF 250455Z AUTO 00000KT 10SM CLR 07/04 A3017 RMK AO2 T00730043
KCWF 250435Z AUTO 00000KT 10SM CLR 07/04 A3016 RMK AO2 T00740044
KCWF 250415Z AUTO 00000KT 10SM CLR 07/05 A3016 RMK AO2 T00680049
KCWF 250350Z 00000KT 10SM SKC 09/04 A3016 RMK LAST
KCWF 250250Z 00000KT 10SM SKC 09/04 A3015
KCWF 250050Z 00000KT 10SM SKC 11/03 A3012
KCWF 242355Z 33003KT 10SM SKC 14/01 A3011
KCWF 242250Z 29009KT 10SM SKC 17/00 A3009
KCWF 242150Z 29011KT 10SM SKC 18/M01 A3009
KCWF 242050Z 31011G17KT 10SM SKC 18/M01 A3009
KCWF 241955Z 31019KT 10SM SKC 18/00 A3009
KCWF 241847Z 30011G15KT 10SM SKC 17/02 A3012
KCWF 241755Z 31008KT 10SM SKC 16/03 A3015
KCWF 241645Z 31011KT 10SM SKC 14/05 A3017
KCWF 241545Z 28005KT 10SM SKC 11/07 A3018
KCWF 241345Z 00000KT 3SM BR SKC 04/04 A3012
KCWF 241255Z 00000KT 7SM SKC 05/04 A3011
KCWF 241200Z 00000KT 7SM SKC 05/05 A3009
KCWF 241135Z AUTO 00000KT 7SM CLR 05/05 A3009 RMK AO2 T00520050
KCWF 241115Z AUTO 30003KT 10SM CLR 05/05 A3008 RMK AO2 T00510048
KCWF 241055Z AUTO 29003KT 7SM CLR 06/05 A3008 RMK AO2 T00560053
KCWF 241035Z AUTO 00000KT 10SM CLR 06/06 A3008 RMK AO2 T00590055
KCWF 241015Z AUTO 00000KT 10SM CLR 06/06 A3008 RMK AO2 T00610057
KCWF 240955Z AUTO 00000KT 10SM CLR 06/06 A3008 RMK AO2 T00610057
KCWF 240935Z AUTO 00000KT 10SM CLR 06/05 A3008 RMK AO2 T00610055
KCWF 240915Z AUTO 31003KT 10SM CLR 06/06 A3008 RMK AO2 T00630056
KCWF 240855Z AUTO 32003KT 10SM CLR 06/06 A3008 RMK AO2 T00640057
KCWF 240835Z AUTO 32004KT 10SM CLR 06/06 A3008 RMK AO2 T00640056
KCWF 240815Z AUTO 33004KT 10SM CLR 07/06 A3008 RMK AO2 T00660058
KCWF 240755Z AUTO 32004KT 10SM CLR 07/06 A3008 RMK AO2 T00680060
KCWF 240735Z AUTO 33003KT 10SM CLR 07/06 A3007 RMK AO2 T00740065
KCWF 240715Z AUTO 32003KT 10SM CLR 08/07 A3007 RMK AO2 T00760065
KCWF 240655Z AUTO 34003KT 10SM CLR 08/06 A3007 RMK AO2 T00770064
KCWF 240635Z AUTO 34005KT 10SM CLR 08/07 A3006 RMK AO2 T00820066
KCWF 240615Z AUTO 34004KT 10SM CLR 08/07 A3006 RMK AO2 T00850069
KCWF 240555Z AUTO 33007KT 10SM SCT017 09/07 A3006 RMK AO2 T00890071 10154 20088
KCWF 240535Z AUTO 34005KT 10SM SCT017 09/07 A3006 RMK AO2 T00910072
KCWF 240515Z AUTO 34007KT 10SM CLR 09/07 A3006 RMK AO2 T00950074
KCWF 240455Z AUTO 35006KT 10SM SCT015 10/08 A3005 RMK AO2 T00990076
KCWF 240435Z AUTO 34007KT 10SM BKN015 10/08 A3006 RMK AO2 T01030077
KCWF 240415Z AUTO 34008KT 10SM SCT017 11/08 A3004 RMK AO2 T01070079
KCWF 240348Z 35009KT 10SM OVC017 11/08 A3003 RMK LAST
KCWF 240255Z 35009KT 10SM BKN017 13/09 A3002